Time;durP1;ratioP1;P1;durP2;ratioP2;P2;SDS_P1;SDS_P2;PMS_P1;PMS_P2;Temp;Humidity;BMP_temperature;BMP_pressure;BME280_temperature;BME280_humidity;BME280_pressure;Samples;Min_cycle;Max_cycle;Signal;HPM_P1;HPM_P2
2023/07/16 00:02:24;;;;;;;16.77;6.60;;;18.00;99.90;;;;;;4403613;28;659748;-70
2023/07/16 00:05:12;;;;;;;8.73;6.20;;;18.00;99.90;;;;;;4383756;28;660460;-69
2023/07/16 00:08:00;;;;;;;12.23;6.60;;;17.90;99.90;;;;;;4396173;28;659324;-69
2023/07/16 00:10:47;;;;;;;11.07;6.23;;;17.90;99.90;;;;;;4421535;28;660490;-71
2023/07/16 00:13:35;;;;;;;10.67;6.43;;;17.80;99.90;;;;;;4402240;28;659896;-69
2023/07/16 00:16:23;;;;;;;7.50;5.50;;;17.80;99.90;;;;;;4410368;28;661587;-70
2023/07/16 00:19:11;;;;;;;13.60;6.13;;;17.70;99.90;;;;;;4402695;28;658761;-70
2023/07/16 00:22:00;;;;;;;7.47;5.33;;;17.70;99.90;;;;;;4403125;28;661798;-70
2023/07/16 00:24:47;;;;;;;7.13;5.63;;;17.80;99.90;;;;;;4386267;28;660142;-70
2023/07/16 00:27:34;;;;;;;9.17;5.90;;;17.70;99.90;;;;;;4411379;28;658702;-70
2023/07/16 00:30:21;;;;;;;15.33;6.57;;;17.80;99.90;;;;;;4388868;28;658697;-70
2023/07/16 00:33:08;;;;;;;7.63;6.20;;;17.70;99.90;;;;;;4410150;28;660274;-70
2023/07/16 00:35:55;;;;;;;7.63;5.77;;;17.60;99.90;;;;;;4387094;28;658642;-71
2023/07/16 00:38:45;;;;;;;8.17;5.90;;;17.60;99.90;;;;;;4404126;28;660714;-72
2023/07/16 00:41:32;;;;;;;13.00;5.90;;;17.60;99.90;;;;;;4388321;28;659795;-72
2023/07/16 00:44:20;;;;;;;12.10;6.03;;;17.70;99.90;;;;;;4406986;28;659646;-71
2023/07/16 00:47:07;;;;;;;11.82;6.18;;;17.70;99.90;;;;;;4408544;28;659507;-72
2023/07/16 00:49:54;;;;;;;7.17;5.90;;;17.60;99.90;;;;;;4408212;28;659899;-72
2023/07/16 00:52:42;;;;;;;12.47;5.90;;;17.70;99.90;;;;;;4392485;28;659307;-72
2023/07/16 00:55:31;;;;;;;10.20;6.03;;;17.70;99.90;;;;;;4409984;28;660332;-72
2023/07/16 00:58:18;;;;;;;11.03;5.43;;;17.70;99.90;;;;;;4375035;28;660489;-72
2023/07/16 01:01:05;;;;;;;9.23;5.50;;;17.80;99.90;;;;;;4385030;28;659676;-71
2023/07/16 01:03:52;;;;;;;6.77;5.60;;;17.80;99.90;;;;;;4413855;28;658646;-71
2023/07/16 01:06:41;;;;;;;6.63;5.50;;;17.80;99.90;;;;;;4410623;28;658367;-72
2023/07/16 01:09:29;;;;;;;7.60;5.50;;;17.80;99.90;;;;;;4380237;28;659091;-72
2023/07/16 01:12:18;;;;;;;9.03;5.47;;;17.80;99.90;;;;;;4392216;28;658200;-72
2023/07/16 01:15:06;;;;;;;10.40;5.70;;;17.80;99.90;;;;;;4383263;28;659176;-71
2023/07/16 01:17:53;;;;;;;7.73;5.33;;;17.80;99.90;;;;;;4409193;28;660808;-72
2023/07/16 01:20:40;;;;;;;8.37;5.50;;;17.80;99.90;;;;;;4374271;28;659115;-71
2023/07/16 01:23:37;;;;;;;8.13;6.10;;;17.80;99.90;;;;;;4394760;28;660025;-73
2023/07/16 01:27:03;;;;;;;10.47;5.70;;;17.80;99.90;;;;;;4387022;28;658473;-72
2023/07/16 01:29:52;;;;;;;9.30;5.80;;;17.80;99.90;;;;;;4345935;28;659973;-71
2023/07/16 01:32:39;;;;;;;8.93;5.70;;;17.80;99.90;;;;;;4408114;28;658421;-72
2023/07/16 01:35:26;;;;;;;10.57;5.57;;;17.80;99.90;;;;;;4387814;28;658500;-72
2023/07/16 01:38:15;;;;;;;12.83;6.30;;;17.80;99.90;;;;;;4402415;28;660250;-72
2023/07/16 01:41:03;;;;;;;9.93;5.80;;;17.80;99.90;;;;;;4383532;28;660966;-72
2023/07/16 01:43:50;;;;;;;12.90;5.97;;;17.80;99.90;;;;;;4400952;28;659258;-71
2023/07/16 01:46:39;;;;;;;9.57;5.87;;;17.80;99.90;;;;;;4415063;28;660574;-72
2023/07/16 01:49:26;;;;;;;12.70;5.80;;;17.70;99.90;;;;;;4382692;28;659212;-72
2023/07/16 01:52:13;;;;;;;9.50;5.90;;;17.70;99.90;;;;;;4405310;28;660837;-72
2023/07/16 01:55:00;;;;;;;7.53;5.90;;;17.70;99.90;;;;;;4388199;28;659050;-71
2023/07/16 01:57:48;;;;;;;7.53;6.03;;;17.60;99.90;;;;;;4404444;28;659285;-72
2023/07/16 02:00:36;;;;;;;8.97;5.70;;;17.60;99.90;;;;;;4403276;28;658982;-72
2023/07/16 02:03:25;;;;;;;12.53;6.00;;;17.60;99.90;;;;;;4409561;28;659179;-73
2023/07/16 02:06:13;;;;;;;9.67;5.93;;;17.50;99.90;;;;;;4382044;28;660853;-72
2023/07/16 02:09:00;;;;;;;7.37;5.90;;;17.50;99.90;;;;;;4383800;28;659181;-71
2023/07/16 02:11:47;;;;;;;13.37;6.07;;;17.50;99.90;;;;;;4411882;28;660054;-72
2023/07/16 02:14:35;;;;;;;9.97;6.00;;;17.50;99.90;;;;;;4406094;28;659753;-72
2023/07/16 02:17:22;;;;;;;7.03;5.33;;;17.40;99.90;;;;;;4409312;28;659454;-72
2023/07/16 02:20:12;;;;;;;8.37;6.07;;;17.40;99.90;;;;;;4390919;28;658520;-71
2023/07/16 02:23:00;;;;;;;7.47;5.90;;;17.40;99.90;;;;;;4408464;28;658557;-72
2023/07/16 02:25:47;;;;;;;10.60;6.17;;;17.30;99.90;;;;;;4380665;28;660218;-72
2023/07/16 02:28:34;;;;;;;12.27;6.20;;;17.30;99.90;;;;;;4406365;28;659295;-72
2023/07/16 02:31:21;;;;;;;11.17;6.60;;;17.20;99.90;;;;;;4385047;28;659311;-72
2023/07/16 02:34:08;;;;;;;12.90;6.20;;;17.20;99.90;;;;;;4408230;28;660629;-73
2023/07/16 02:36:57;;;;;;;9.87;6.20;;;17.20;99.90;;;;;;4389811;28;659687;-72
2023/07/16 02:39:46;;;;;;;9.03;6.00;;;17.10;99.90;;;;;;4399727;28;658572;-72
2023/07/16 02:42:33;;;;;;;8.53;6.10;;;17.10;99.90;;;;;;4384647;28;659085;-72
2023/07/16 02:45:20;;;;;;;8.13;6.10;;;17.10;99.90;;;;;;4389825;28;658472;-71
2023/07/16 02:48:08;;;;;;;10.37;6.03;;;17.10;99.90;;;;;;4417130;28;659927;-73
2023/07/16 02:50:55;;;;;;;11.87;6.30;;;17.10;99.90;;;;;;4399963;28;660372;-72
2023/07/16 02:53:44;;;;;;;7.47;5.83;;;17.00;99.90;;;;;;4407877;28;660737;-72
2023/07/16 02:56:31;;;;;;;8.73;6.23;;;17.00;99.90;;;;;;4379366;28;658698;-72
2023/07/16 02:59:18;;;;;;;12.33;6.17;;;17.00;99.90;;;;;;4403661;28;659452;-73
2023/07/16 03:02:05;;;;;;;7.20;6.00;;;17.00;99.90;;;;;;4386979;28;660346;-72
2023/07/16 03:04:53;;;;;;;7.80;5.97;;;17.00;99.90;;;;;;4412446;28;659032;-72
2023/07/16 03:07:40;;;;;;;7.93;6.00;;;17.00;99.90;;;;;;4392936;28;658601;-72
2023/07/16 03:10:29;;;;;;;8.83;6.30;;;17.00;99.90;;;;;;4405369;28;658566;-73
2023/07/16 03:13:16;;;;;;;7.90;6.20;;;17.00;99.90;;;;;;4387846;28;659001;-73
2023/07/16 03:16:03;;;;;;;7.23;6.00;;;17.00;99.90;;;;;;4402663;28;659704;-72
2023/07/16 03:18:50;;;;;;;10.33;6.57;;;17.00;99.90;;;;;;4383937;28;659064;-72
2023/07/16 03:21:37;;;;;;;8.10;6.00;;;17.00;99.90;;;;;;4396608;28;660793;-72
2023/07/16 03:24:25;;;;;;;9.77;6.20;;;17.00;99.90;;;;;;4404153;28;658556;-72
2023/07/16 03:27:14;;;;;;;8.00;6.27;;;17.00;99.90;;;;;;4416329;28;659749;-72
2023/07/16 03:30:01;;;;;;;7.00;6.00;;;17.10;99.90;;;;;;4385517;28;658411;-73
2023/07/16 03:32:48;;;;;;;7.63;6.13;;;17.00;99.90;;;;;;4408409;28;659326;-72
2023/07/16 03:35:35;;;;;;;12.13;6.67;;;17.00;99.90;;;;;;4387664;28;658371;-72
2023/07/16 03:38:23;;;;;;;8.40;6.07;;;17.10;99.90;;;;;;4410916;28;660646;-72
2023/07/16 03:41:10;;;;;;;9.10;6.00;;;17.10;99.90;;;;;;4396793;28;660786;-72
2023/07/16 03:43:59;;;;;;;8.90;6.13;;;17.10;99.90;;;;;;4416072;28;659584;-72
2023/07/16 03:46:46;;;;;;;8.67;6.03;;;17.20;99.90;;;;;;4397816;28;659097;-72
2023/07/16 03:49:33;;;;;;;10.10;6.10;;;17.30;99.90;;;;;;4416797;28;658313;-73
2023/07/16 03:52:20;;;;;;;8.37;6.17;;;17.30;99.90;;;;;;4381466;28;659897;-72
2023/07/16 03:55:08;;;;;;;7.13;6.10;;;17.40;99.90;;;;;;4412715;28;660071;-72
2023/07/16 03:57:55;;;;;;;7.03;5.60;;;17.40;99.90;;;;;;4390690;28;658668;-72
2023/07/16 04:00:44;;;;;;;7.17;6.17;;;17.50;99.90;;;;;;4402485;28;659249;-72
2023/07/16 04:03:31;;;;;;;10.93;6.07;;;17.60;99.90;;;;;;4393121;28;659268;-73
2023/07/16 04:06:19;;;;;;;7.60;6.00;;;17.70;99.90;;;;;;4411446;28;660581;-72
2023/07/16 04:09:06;;;;;;;8.13;6.43;;;17.80;99.90;;;;;;4392931;28;658741;-72
2023/07/16 04:11:53;;;;;;;7.03;5.83;;;17.90;99.90;;;;;;4400107;28;659069;-72
2023/07/16 04:14:40;;;;;;;7.03;6.07;;;18.00;99.90;;;;;;4391773;28;658597;-72
2023/07/16 04:17:29;;;;;;;7.77;6.07;;;18.10;99.90;;;;;;4410852;28;659453;-72
2023/07/16 04:20:16;;;;;;;8.23;5.60;;;18.20;99.90;;;;;;4385025;28;658716;-72
2023/07/16 04:23:03;;;;;;;8.93;5.83;;;18.20;99.90;;;;;;4410403;28;659244;-72
2023/07/16 04:25:52;;;;;;;9.73;6.07;;;18.40;99.90;;;;;;4393214;28;658964;-72
2023/07/16 04:28:40;;;;;;;9.87;6.13;;;18.50;99.90;;;;;;4409967;28;658773;-72
2023/07/16 04:31:27;;;;;;;7.83;5.80;;;18.70;99.90;;;;;;4406793;28;658318;-73
2023/07/16 04:34:16;;;;;;;7.10;5.90;;;18.80;99.90;;;;;;4410913;28;658972;-72
2023/07/16 04:37:03;;;;;;;7.50;5.97;;;19.00;99.90;;;;;;4383092;28;659191;-72
2023/07/16 04:39:51;;;;;;;7.60;6.13;;;19.20;99.90;;;;;;4389001;28;658694;-72
2023/07/16 04:42:38;;;;;;;7.17;6.20;;;19.30;99.90;;;;;;4411361;28;660376;-72
2023/07/16 04:45:25;;;;;;;7.30;6.40;;;19.50;99.90;;;;;;4395022;28;659313;-72
2023/07/16 04:48:12;;;;;;;7.87;6.53;;;19.60;99.90;;;;;;4411639;28;659407;-72
2023/07/16 04:51:02;;;;;;;6.90;5.43;;;19.70;99.90;;;;;;4406484;28;658353;-72
2023/07/16 04:53:49;;;;;;;7.80;5.87;;;19.90;99.90;;;;;;4412114;28;659244;-72
2023/07/16 04:56:36;;;;;;;7.33;6.13;;;20.00;99.90;;;;;;4387493;28;658991;-72
2023/07/16 04:59:23;;;;;;;6.53;5.50;;;20.20;99.90;;;;;;4411734;28;659700;-72
2023/07/16 05:02:11;;;;;;;7.07;6.00;;;20.30;99.90;;;;;;4388044;28;659269;-72
2023/07/16 05:04:58;;;;;;;8.30;5.93;;;20.50;99.90;;;;;;4408142;28;659140;-72
2023/07/16 05:07:47;;;;;;;9.07;5.90;;;20.80;99.90;;;;;;4387718;28;658602;-72
2023/07/16 05:10:34;;;;;;;7.20;5.83;;;20.90;99.90;;;;;;4410064;28;659044;-72
2023/07/16 05:13:21;;;;;;;6.60;5.30;;;21.10;99.90;;;;;;4391794;28;658341;-72
2023/07/16 05:16:08;;;;;;;7.93;5.67;;;21.30;99.90;;;;;;4412125;28;659592;-72
2023/07/16 05:18:55;;;;;;;7.03;5.40;;;21.50;99.90;;;;;;4392266;28;658842;-72
2023/07/16 05:21:43;;;;;;;6.67;5.03;;;21.60;99.90;;;;;;4395273;28;660482;-72
2023/07/16 05:24:32;;;;;;;6.27;5.33;;;21.80;99.90;;;;;;4402135;28;658844;-72
2023/07/16 05:27:19;;;;;;;5.23;4.73;;;22.00;99.90;;;;;;4407165;28;658989;-72
2023/07/16 05:30:08;;;;;;;5.17;4.63;;;22.20;99.90;;;;;;4380278;28;658647;-72
2023/07/16 05:32:55;;;;;;;7.13;5.10;;;22.40;99.90;;;;;;4401420;28;658678;-71
2023/07/16 05:35:42;;;;;;;6.13;4.67;;;22.50;99.90;;;;;;4415882;28;658861;-72
2023/07/16 05:38:29;;;;;;;6.50;4.73;;;22.70;99.90;;;;;;4411900;28;658355;-73
2023/07/16 05:41:18;;;;;;;7.10;5.00;;;22.90;99.90;;;;;;4388870;28;659217;-72
2023/07/16 05:44:05;;;;;;;7.93;4.70;;;23.10;99.90;;;;;;4391095;28;658631;-72
2023/07/16 05:46:52;;;;;;;6.23;4.50;;;23.30;99.90;;;;;;4410126;28;660058;-73
2023/07/16 05:49:40;;;;;;;5.60;4.47;;;23.40;99.90;;;;;;4405952;28;658962;-72
2023/07/16 05:52:27;;;;;;;7.10;5.07;;;23.60;99.90;;;;;;4405113;28;659102;-72
2023/07/16 05:55:15;;;;;;;6.37;4.50;;;23.70;99.90;;;;;;4411101;28;658326;-72
2023/07/16 05:58:03;;;;;;;9.45;5.55;;;23.90;99.90;;;;;;4386116;28;660186;-72
2023/07/16 06:00:51;;;;;;;8.63;5.28;;;24.10;99.90;;;;;;4390520;28;658725;-72
2023/07/16 06:03:38;;;;;;;6.57;4.95;;;24.20;99.90;;;;;;4409541;28;658748;-72
2023/07/16 06:06:27;;;;;;;11.10;5.80;;;24.40;99.90;;;;;;4390620;28;658832;-72
2023/07/16 06:09:14;;;;;;;5.82;4.88;;;24.60;99.90;;;;;;4413372;28;659579;-72
2023/07/16 06:12:01;;;;;;;10.93;4.93;;;24.70;99.90;;;;;;4389458;28;659082;-73
2023/07/16 06:14:50;;;;;;;8.65;5.10;;;24.90;99.90;;;;;;4401236;28;660018;-72
2023/07/16 06:17:37;;;;;;;7.38;4.65;;;25.00;99.90;;;;;;4390893;28;660042;-72
2023/07/16 06:20:24;;;;;;;6.32;4.85;;;25.20;99.90;;;;;;4400955;28;659306;-72
2023/07/16 06:23:12;;;;;;;8.60;4.53;;;25.30;99.90;;;;;;4391128;28;659035;-72
2023/07/16 06:25:59;;;;;;;10.90;5.35;;;25.50;99.90;;;;;;4412749;28;658521;-72
2023/07/16 06:28:49;;;;;;;6.18;4.70;;;25.60;99.90;;;;;;4389828;28;659499;-72
2023/07/16 06:31:37;;;;;;;13.40;4.40;;;25.70;99.90;;;;;;4383108;28;658859;-72
2023/07/16 06:34:24;;;;;;;9.65;4.25;;;25.90;99.90;;;;;;4407753;28;659532;-72
2023/07/16 06:37:12;;;;;;;5.75;4.10;;;25.90;99.90;;;;;;4390859;28;658854;-72
2023/07/16 06:39:59;;;;;;;5.07;4.07;;;26.00;99.90;;;;;;4407459;28;659368;-72
2023/07/16 06:42:46;;;;;;;9.55;4.20;;;26.20;99.90;;;;;;4385515;28;658865;-71
2023/07/16 06:45:33;;;;;;;4.75;4.15;;;26.20;99.90;;;;;;4414652;28;659576;-72
2023/07/16 06:48:22;;;;;;;7.93;4.40;;;26.40;99.90;;;;;;4379112;28;659165;-71
2023/07/16 06:51:09;;;;;;;7.05;4.38;;;26.50;99.90;;;;;;4400962;28;658294;-72
2023/07/16 06:53:56;;;;;;;7.95;4.50;;;26.60;99.90;;;;;;4388331;28;658452;-72
2023/07/16 06:56:43;;;;;;;6.38;4.03;;;26.60;99.90;;;;;;4409717;28;658904;-71
2023/07/16 06:59:30;;;;;;;9.35;4.63;;;26.70;99.90;;;;;;4386024;28;659254;-71
2023/07/16 07:02:18;;;;;;;6.18;4.10;;;26.70;99.90;;;;;;4410165;28;659800;-72
2023/07/16 07:05:07;;;;;;;6.65;4.30;;;26.90;99.90;;;;;;4394890;28;658600;-71
2023/07/16 07:07:54;;;;;;;5.88;4.65;;;26.80;99.90;;;;;;4411462;28;659293;-71
2023/07/16 07:10:42;;;;;;;6.13;4.25;;;26.90;99.90;;;;;;4387540;28;658548;-71
2023/07/16 07:13:30;;;;;;;6.38;4.20;;;27.00;99.90;;;;;;4415771;28;659405;-71
2023/07/16 07:16:17;;;;;;;4.20;3.72;;;27.10;99.90;;;;;;4395051;28;658800;-72
2023/07/16 07:19:04;;;;;;;5.32;4.30;;;27.10;99.90;;;;;;4403987;28;658857;-72
2023/07/16 07:21:53;;;;;;;5.45;4.28;;;27.20;99.90;;;;;;4383190;28;659462;-72
2023/07/16 07:24:40;;;;;;;6.35;4.38;;;27.30;99.90;;;;;;4402172;28;658886;-71
2023/07/16 07:27:27;;;;;;;6.43;4.28;;;27.30;99.90;;;;;;4411983;28;659811;-72
2023/07/16 07:30:15;;;;;;;7.68;4.55;;;27.30;99.90;;;;;;4404600;28;658921;-71
2023/07/16 07:33:03;;;;;;;4.78;4.05;;;27.50;99.90;;;;;;4417362;28;659685;-72
2023/07/16 07:35:50;;;;;;;6.50;4.63;;;27.60;99.90;;;;;;4399130;28;658914;-71
2023/07/16 07:38:39;;;;;;;10.75;4.65;;;27.80;99.90;;;;;;4405852;28;659959;-72
2023/07/16 07:41:26;;;;;;;6.78;4.18;;;28.00;99.90;;;;;;4383182;28;659627;-72
2023/07/16 07:44:13;;;;;;;10.70;4.43;;;28.20;99.90;;;;;;4416635;28;658970;-72
2023/07/16 07:47:00;;;;;;;7.22;4.20;;;28.10;99.90;;;;;;4398908;28;660078;-72
2023/07/16 07:49:48;;;;;;;5.38;4.05;;;28.20;97.60;;;;;;4412014;28;660105;-71
2023/07/16 07:52:35;;;;;;;7.30;4.22;;;27.60;99.90;;;;;;4387372;28;658531;-71
2023/07/16 07:55:24;;;;;;;7.55;4.40;;;27.80;99.90;;;;;;4408873;28;659611;-72
2023/07/16 07:58:11;;;;;;;7.22;4.95;;;28.00;99.90;;;;;;4389902;28;658785;-71
2023/07/16 08:01:04;;;;;;;6.45;4.57;;;28.10;98.60;;;;;;4417239;28;658939;-71
2023/07/16 08:03:51;;;;;;;9.73;4.90;;;28.40;99.90;;;;;;4356966;28;659116;-72
2023/07/16 08:06:38;;;;;;;6.95;4.63;;;28.70;98.80;;;;;;4415903;28;658669;-72
2023/07/16 08:09:26;;;;;;;6.35;4.18;;;28.50;98.00;;;;;;4392862;28;658879;-71
2023/07/16 08:12:15;;;;;;;5.43;4.50;;;28.40;95.90;;;;;;4407119;28;659576;-71
2023/07/16 08:15:03;;;;;;;7.35;4.43;;;28.40;97.40;;;;;;4377320;28;659549;-71
2023/07/16 08:17:50;;;;;;;7.38;4.30;;;28.20;99.10;;;;;;4392983;28;659239;-71
2023/07/16 08:20:38;;;;;;;6.80;4.43;;;28.30;99.90;;;;;;4401499;28;659438;-72
2023/07/16 08:23:25;;;;;;;7.97;3.97;;;28.40;96.60;;;;;;4394365;28;658752;-71
2023/07/16 08:26:13;;;;;;;5.93;4.20;;;28.50;96.00;;;;;;4415815;28;659592;-72
2023/07/16 08:29:02;;;;;;;5.25;4.07;;;28.60;94.50;;;;;;4386630;28;658752;-71
2023/07/16 08:31:49;;;;;;;6.45;3.92;;;28.70;92.10;;;;;;4403307;28;659213;-73
2023/07/16 08:34:36;;;;;;;6.63;3.78;;;28.90;94.20;;;;;;4382083;28;659278;-72
2023/07/16 08:37:24;;;;;;;7.50;4.50;;;28.80;82.40;;;;;;4411535;28;659249;-73
2023/07/16 08:40:12;;;;;;;6.93;4.10;;;29.00;81.70;;;;;;4391007;28;658909;-72
2023/07/16 08:42:59;;;;;;;7.43;4.18;;;29.30;80.90;;;;;;4403414;28;659071;-72
2023/07/16 08:45:48;;;;;;;6.22;4.00;;;29.40;78.40;;;;;;4389024;28;659219;-73
2023/07/16 08:48:35;;;;;;;6.93;4.13;;;29.40;76.30;;;;;;4401626;28;658730;-71
2023/07/16 08:51:23;;;;;;;7.53;4.40;;;29.30;74.90;;;;;;4411467;28;659225;-72
2023/07/16 08:54:11;;;;;;;7.43;4.20;;;29.50;77.90;;;;;;4387978;28;658732;-71
2023/07/16 08:56:58;;;;;;;5.22;4.20;;;29.80;78.10;;;;;;4414784;28;659771;-72
2023/07/16 08:59:45;;;;;;;6.82;4.28;;;29.50;77.50;;;;;;4397468;28;658952;-72
2023/07/16 09:02:34;;;;;;;5.35;3.75;;;29.70;76.90;;;;;;4412158;28;659822;-74
2023/07/16 09:05:21;;;;;;;5.70;4.28;;;29.90;72.30;;;;;;4388639;28;661797;-71
2023/07/16 09:08:08;;;;;;;9.85;4.90;;;29.70;72.40;;;;;;4410485;28;659842;-71
2023/07/16 09:10:56;;;;;;;10.20;4.80;;;29.40;71.10;;;;;;4392620;28;658635;-76
2023/07/16 09:13:45;;;;;;;12.40;5.32;;;29.40;78.30;;;;;;4402880;28;660101;-76
2023/07/16 09:16:34;;;;;;;7.80;5.60;;;29.50;76.90;;;;;;4388684;28;659930;-76
2023/07/16 09:19:22;;;;;;;6.10;5.32;;;29.70;75.80;;;;;;4384823;28;658893;-76
2023/07/16 09:22:10;;;;;;;9.52;6.18;;;29.80;79.80;;;;;;4393301;28;659452;-75
2023/07/16 09:24:57;;;;;;;8.00;6.18;;;29.90;80.80;;;;;;4375948;28;658840;-72
2023/07/16 09:27:44;;;;;;;10.45;6.70;;;29.80;77.90;;;;;;4411687;28;658975;-72
2023/07/16 09:30:32;;;;;;;9.55;7.10;;;30.30;79.20;;;;;;4390333;28;659444;-76
2023/07/16 09:33:20;;;;;;;11.48;6.70;;;30.10;75.00;;;;;;4401685;28;658635;-76
2023/07/16 09:36:09;;;;;;;11.87;7.07;;;30.00;79.60;;;;;;4381215;28;659747;-76
2023/07/16 09:38:56;;;;;;;11.07;6.32;;;29.90;85.50;;;;;;4389208;28;659620;-76
2023/07/16 09:41:43;;;;;;;12.43;6.32;;;30.30;78.10;;;;;;4408383;28;661107;-75
2023/07/16 09:44:30;;;;;;;12.18;6.97;;;30.50;80.30;;;;;;4381466;28;659657;-75
2023/07/16 09:47:18;;;;;;;11.07;7.30;;;30.90;84.60;;;;;;4415124;28;661348;-72
2023/07/16 09:50:06;;;;;;;11.00;7.53;;;30.60;79.70;;;;;;4399950;28;659783;-71
2023/07/16 09:52:55;;;;;;;9.43;7.35;;;30.60;80.40;;;;;;4393668;28;660518;-72
2023/07/16 09:55:42;;;;;;;12.10;7.45;;;30.50;81.40;;;;;;4386482;28;659822;-72
2023/07/16 09:58:29;;;;;;;14.05;7.78;;;30.60;84.50;;;;;;4408127;28;659647;-73
2023/07/16 10:01:16;;;;;;;11.80;8.00;;;30.80;81.60;;;;;;4386489;28;660864;-72
2023/07/16 10:04:12;;;;;;;14.00;8.13;;;30.80;84.50;;;;;;4401432;28;660575;-74
2023/07/16 10:07:00;;;;;;;9.70;8.67;;;31.20;79.40;;;;;;4385467;28;659449;-76
2023/07/16 10:09:55;;;;;;;14.35;8.80;;;31.00;74.80;;;;;;4378689;28;660502;-72
2023/07/16 10:12:42;;;;;;;12.52;9.38;;;30.80;78.20;;;;;;4362870;28;660013;-71
2023/07/16 10:15:30;;;;;;;10.55;8.50;;;30.90;79.50;;;;;;4401209;28;659805;-73
2023/07/16 10:18:28;;;;;;;11.60;9.07;;;31.40;75.50;;;;;;4386526;28;660838;-73
2023/07/16 10:21:15;;;;;;;12.15;9.10;;;31.40;78.20;;;;;;4354976;28;659776;-73
2023/07/16 10:24:05;;;;;;;14.88;9.80;;;31.20;74.20;;;;;;4408570;28;661134;-77
2023/07/16 10:26:53;;;;;;;12.32;9.85;;;31.30;76.90;;;;;;4376390;28;661042;-76
2023/07/16 10:29:41;;;;;;;11.50;9.40;;;31.30;78.10;;;;;;4389253;28;659690;-76
2023/07/16 10:32:29;;;;;;;15.55;9.77;;;31.90;73.80;;;;;;4407887;28;660205;-72
2023/07/16 10:35:16;;;;;;;11.45;9.82;;;31.40;77.30;;;;;;4383198;28;659538;-71
2023/07/16 10:38:03;;;;;;;12.35;9.77;;;31.40;74.20;;;;;;4398499;28;660224;-72
2023/07/16 10:40:50;;;;;;;15.15;10.98;;;31.30;73.10;;;;;;4387577;28;660035;-72
2023/07/16 10:43:39;;;;;;;13.77;9.88;;;31.40;80.00;;;;;;4406444;28;662430;-72
2023/07/16 10:46:26;;;;;;;15.70;11.25;;;31.60;80.40;;;;;;4394689;28;659600;-72
2023/07/16 10:49:13;;;;;;;13.93;11.80;;;31.40;80.50;;;;;;4396572;28;661793;-72
2023/07/16 10:52:01;;;;;;;13.15;11.00;;;31.20;79.80;;;;;;4388598;28;660551;-73
2023/07/16 10:54:48;;;;;;;15.90;11.55;;;31.20;79.90;;;;;;4411769;28;660288;-73
2023/07/16 10:57:35;;;;;;;12.55;11.20;;;31.80;81.40;;;;;;4373654;28;660835;-73
2023/07/16 11:00:24;;;;;;;13.20;11.82;;;31.50;76.30;;;;;;4406440;28;661800;-76
2023/07/16 11:03:12;;;;;;;13.38;11.77;;;31.60;73.90;;;;;;4382468;28;661000;-76
2023/07/16 11:05:59;;;;;;;13.77;11.60;;;31.50;77.90;;;;;;4407243;28;661088;-72
2023/07/16 11:08:46;;;;;;;14.00;12.10;;;31.40;77.10;;;;;;4375239;28;660639;-72
2023/07/16 11:11:33;;;;;;;14.07;12.40;;;31.80;76.60;;;;;;4406218;28;661128;-72
2023/07/16 11:14:21;;;;;;;13.80;12.27;;;32.10;74.80;;;;;;4387738;28;660952;-71
2023/07/16 11:17:10;;;;;;;15.93;12.45;;;31.70;71.70;;;;;;4408695;28;660122;-72
2023/07/16 11:19:57;;;;;;;14.23;12.73;;;31.70;73.40;;;;;;4370364;28;661076;-74
2023/07/16 11:22:44;;;;;;;13.93;12.52;;;31.50;73.80;;;;;;4406329;28;660993;-73
2023/07/16 11:25:31;;;;;;;13.15;11.55;;;31.40;76.50;;;;;;4387159;28;660993;-72
2023/07/16 11:28:19;;;;;;;12.85;11.40;;;31.80;76.50;;;;;;4396933;28;661113;-73
2023/07/16 11:31:12;;;;;;;13.40;11.93;;;32.40;80.70;;;;;;4384117;28;660632;-72
2023/07/16 11:34:02;;;;;;;16.25;11.48;;;32.70;70.40;;;;;;4383854;28;661638;-72
2023/07/16 11:36:50;;;;;;;17.63;12.57;;;31.70;70.90;;;;;;4371506;28;660965;-72
2023/07/16 11:39:37;;;;;;;12.52;11.23;;;31.70;76.40;;;;;;4373673;28;661569;-72
2023/07/16 11:42:24;;;;;;;12.10;10.35;;;31.70;76.80;;;;;;4406409;28;660596;-72
2023/07/16 11:45:16;;;;;;;12.15;10.32;;;31.70;76.50;;;;;;4377517;28;661736;-72
2023/07/16 11:48:04;;;;;;;13.00;10.43;;;31.40;72.00;;;;;;4389715;28;660981;-73
2023/07/16 11:50:52;;;;;;;12.23;10.48;;;31.40;74.70;;;;;;4381206;28;660305;-73
2023/07/16 11:53:40;;;;;;;13.35;10.95;;;32.00;67.90;;;;;;4401362;28;660671;-70
2023/07/16 11:56:27;;;;;;;12.45;10.45;;;32.50;71.70;;;;;;4404455;28;661415;-72
2023/07/16 11:59:16;;;;;;;10.80;9.75;;;32.50;67.80;;;;;;4408931;28;660718;-71
2023/07/16 12:02:03;;;;;;;13.52;10.77;;;32.10;71.40;;;;;;4411277;28;659913;-73
2023/07/16 12:04:51;;;;;;;15.02;9.80;;;32.00;76.40;;;;;;4390897;28;660760;-73
2023/07/16 12:07:39;;;;;;;12.32;8.52;;;32.00;73.90;;;;;;4414570;28;661022;-72
2023/07/16 12:10:26;;;;;;;10.27;8.45;;;31.70;71.80;;;;;;4383985;28;659570;-73
2023/07/16 12:13:14;;;;;;;11.98;9.23;;;32.10;74.30;;;;;;4407035;28;660323;-72
2023/07/16 12:16:02;;;;;;;10.73;9.00;;;31.90;67.10;;;;;;4389746;28;659612;-71
2023/07/16 12:18:49;;;;;;;14.73;9.57;;;31.70;73.20;;;;;;4410495;28;659501;-72
2023/07/16 12:21:36;;;;;;;13.43;9.82;;;31.90;72.50;;;;;;4379787;28;659908;-72
2023/07/16 12:24:25;;;;;;;10.45;8.73;;;32.70;74.00;;;;;;4410653;28;660682;-72
2023/07/16 12:27:12;;;;;;;9.25;7.82;;;32.90;65.90;;;;;;4378116;28;660889;-72
2023/07/16 12:29:59;;;;;;;11.68;7.75;;;32.90;63.00;;;;;;4412462;28;659846;-71
2023/07/16 12:32:46;;;;;;;10.18;7.13;;;33.10;62.90;;;;;;4391414;28;659794;-72
2023/07/16 12:35:33;;;;;;;11.65;7.47;;;33.20;59.20;;;;;;4409941;28;660261;-72
2023/07/16 12:38:22;;;;;;;8.15;7.10;;;33.80;59.10;;;;;;4391317;28;659911;-70
2023/07/16 12:41:10;;;;;;;8.73;7.03;;;33.80;59.80;;;;;;4401107;28;658884;-72
2023/07/16 12:43:58;;;;;;;10.57;7.82;;;33.60;59.00;;;;;;4389647;28;659200;-72
2023/07/16 12:46:45;;;;;;;9.43;7.72;;;33.80;57.20;;;;;;4398653;28;660270;-70
2023/07/16 12:49:32;;;;;;;11.82;7.78;;;33.40;57.00;;;;;;4401892;28;659378;-72
2023/07/16 12:52:20;;;;;;;13.35;8.18;;;33.20;62.30;;;;;;4408022;28;659209;-71
2023/07/16 12:55:08;;;;;;;11.30;8.30;;;33.00;59.50;;;;;;4411005;28;660114;-72
2023/07/16 12:57:57;;;;;;;9.18;8.23;;;32.50;57.70;;;;;;4396553;28;660024;-70
2023/07/16 13:00:44;;;;;;;9.95;8.05;;;33.10;58.60;;;;;;4405596;28;659167;-72
2023/07/16 13:03:31;;;;;;;11.68;8.02;;;34.00;58.20;;;;;;4388674;28;658733;-72
2023/07/16 13:06:18;;;;;;;17.20;8.70;;;34.30;56.00;;;;;;4409776;28;660481;-73
2023/07/16 13:09:05;;;;;;;13.15;8.05;;;33.80;55.50;;;;;;4385348;28;659714;-71
2023/07/16 13:11:53;;;;;;;10.25;8.18;;;33.50;54.50;;;;;;4409360;28;660866;-72
2023/07/16 13:14:42;;;;;;;10.85;8.32;;;32.80;56.00;;;;;;4399636;28;659392;-70
2023/07/16 13:17:29;;;;;;;12.13;8.25;;;32.30;58.30;;;;;;4413685;28;660171;-73
2023/07/16 13:20:16;;;;;;;10.93;8.00;;;32.40;58.80;;;;;;4379467;28;662539;-73
2023/07/16 13:23:03;;;;;;;10.50;8.00;;;32.40;58.10;;;;;;4396077;28;660436;-72
2023/07/16 13:25:52;;;;;;;9.90;7.78;;;32.90;60.50;;;;;;4390736;28;659439;-71
2023/07/16 13:28:39;;;;;;;10.33;7.80;;;33.40;57.80;;;;;;4409708;28;659263;-72
2023/07/16 13:31:28;;;;;;;9.40;7.35;;;34.10;61.40;;;;;;4390204;28;660040;-72
2023/07/16 13:34:15;;;;;;;8.07;6.93;;;34.80;54.90;;;;;;4390184;28;658680;-70
2023/07/16 13:37:03;;;;;;;12.75;7.55;;;35.00;53.00;;;;;;4407633;28;658846;-71
2023/07/16 13:39:50;;;;;;;8.88;7.22;;;34.70;54.00;;;;;;4387300;28;659883;-71
2023/07/16 13:42:37;;;;;;;8.02;7.00;;;34.60;54.20;;;;;;4403905;28;659478;-70
2023/07/16 13:45:25;;;;;;;8.25;7.20;;;34.30;55.70;;;;;;4393348;28;658719;-69
2023/07/16 13:48:14;;;;;;;10.90;6.90;;;33.90;55.40;;;;;;4410824;28;660179;-72
2023/07/16 13:51:01;;;;;;;9.13;6.70;;;33.80;54.70;;;;;;4387669;28;660198;-70
2023/07/16 13:53:48;;;;;;;12.73;7.60;;;33.70;55.00;;;;;;4408373;28;659420;-70
2023/07/16 13:56:36;;;;;;;9.02;7.60;;;33.50;55.40;;;;;;4383454;28;660739;-68
2023/07/16 13:59:24;;;;;;;12.27;8.13;;;33.30;56.50;;;;;;4395976;28;659206;-69
2023/07/16 14:02:11;;;;;;;10.75;7.60;;;33.10;60.50;;;;;;4387478;28;659753;-69
2023/07/16 14:04:59;;;;;;;10.23;8.38;;;32.70;58.70;;;;;;4410193;28;659999;-71
2023/07/16 14:07:47;;;;;;;8.63;7.45;;;32.70;61.50;;;;;;4391323;28;659722;-70
2023/07/16 14:10:34;;;;;;;12.85;8.20;;;33.20;58.40;;;;;;4410960;28;658441;-69
2023/07/16 14:13:23;;;;;;;11.57;8.05;;;33.70;59.00;;;;;;4391964;28;660549;-70
2023/07/16 14:16:10;;;;;;;8.93;7.75;;;34.10;57.30;;;;;;4391009;28;659623;-70